sensor_id;sensor_type;location;lat;lon;timestamp;P1;durP1;ratioP1;P2;durP2;ratioP2
48743;SDS011;34538;48.836;9.174;2023-12-28T00:02:04;3.88;;;1.80;;
48743;SDS011;34538;48.836;9.174;2023-12-28T00:04:31;1.80;;;1.30;;
48743;SDS011;34538;48.836;9.174;2023-12-28T00:07:01;3.08;;;1.52;;
48743;SDS011;34538;48.836;9.174;2023-12-28T00:09:28;2.47;;;1.67;;
48743;SDS011;34538;48.836;9.174;2023-12-28T00:11:56;2.78;;;1.70;;
48743;SDS011;34538;48.836;9.174;2023-12-28T00:14:22;4.90;;;2.33;;
48743;SDS011;34538;48.836;9.174;2023-12-28T00:16:49;2.42;;;1.35;;
48743;SDS011;34538;48.836;9.174;2023-12-28T00:19:17;2.45;;;1.55;;
48743;SDS011;34538;48.836;9.174;2023-12-28T00:21:44;3.42;;;1.55;;
48743;SDS011;34538;48.836;9.174;2023-12-28T00:24:13;2.65;;;1.45;;
48743;SDS011;34538;48.836;9.174;2023-12-28T00:26:41;1.95;;;1.20;;
48743;SDS011;34538;48.836;9.174;2023-12-28T00:29:08;3.17;;;1.30;;
48743;SDS011;34538;48.836;9.174;2023-12-28T00:31:35;1.98;;;1.10;;
48743;SDS011;34538;48.836;9.174;2023-12-28T00:34:02;2.72;;;2.20;;
48743;SDS011;34538;48.836;9.174;2023-12-28T00:36:29;4.38;;;1.45;;
48743;SDS011;34538;48.836;9.174;2023-12-28T00:38:56;3.45;;;1.67;;
48743;SDS011;34538;48.836;9.174;2023-12-28T00:41:25;3.40;;;1.70;;
48743;SDS011;34538;48.836;9.174;2023-12-28T00:43:52;3.33;;;1.63;;
48743;SDS011;34538;48.836;9.174;2023-12-28T00:46:20;2.40;;;1.42;;
48743;SDS011;34538;48.836;9.174;2023-12-28T00:48:47;1.73;;;1.10;;
48743;SDS011;34538;48.836;9.174;2023-12-28T00:51:14;1.58;;;1.02;;
48743;SDS011;34538;48.836;9.174;2023-12-28T00:53:41;2.53;;;1.45;;
48743;SDS011;34538;48.836;9.174;2023-12-28T00:56:09;1.67;;;1.08;;
48743;SDS011;34538;48.836;9.174;2023-12-28T00:58:39;1.85;;;1.17;;
48743;SDS011;34538;48.836;9.174;2023-12-28T01:01:08;2.83;;;1.20;;
48743;SDS011;34538;48.836;9.174;2023-12-28T01:03:35;1.48;;;1.05;;
48743;SDS011;34538;48.836;9.174;2023-12-28T01:06:02;3.60;;;1.40;;
48743;SDS011;34538;48.836;9.174;2023-12-28T01:08:30;2.10;;;1.23;;
48743;SDS011;34538;48.836;9.174;2023-12-28T01:10:59;1.70;;;1.20;;
48743;SDS011;34538;48.836;9.174;2023-12-28T01:13:26;2.53;;;1.17;;
48743;SDS011;34538;48.836;9.174;2023-12-28T01:15:54;2.22;;;1.10;;
48743;SDS011;34538;48.836;9.174;2023-12-28T01:18:21;2.20;;;1.20;;
48743;SDS011;34538;48.836;9.174;2023-12-28T01:20:50;2.10;;;1.52;;
48743;SDS011;34538;48.836;9.174;2023-12-28T01:23:17;1.98;;;1.17;;
48743;SDS011;34538;48.836;9.174;2023-12-28T01:25:44;2.33;;;1.30;;
48743;SDS011;34538;48.836;9.174;2023-12-28T01:28:11;2.90;;;1.50;;
48743;SDS011;34538;48.836;9.174;2023-12-28T01:30:38;2.33;;;1.38;;
48743;SDS011;34538;48.836;9.174;2023-12-28T01:33:07;2.65;;;1.23;;
48743;SDS011;34538;48.836;9.174;2023-12-28T01:35:35;3.72;;;1.80;;
48743;SDS011;34538;48.836;9.174;2023-12-28T01:38:02;2.72;;;1.58;;
48743;SDS011;34538;48.836;9.174;2023-12-28T01:40:30;2.50;;;1.38;;
48743;SDS011;34538;48.836;9.174;2023-12-28T01:42:56;2.08;;;1.40;;
48743;SDS011;34538;48.836;9.174;2023-12-28T01:45:24;1.92;;;1.20;;
48743;SDS011;34538;48.836;9.174;2023-12-28T01:47:52;2.90;;;1.17;;
48743;SDS011;34538;48.836;9.174;2023-12-28T01:50:21;3.50;;;1.20;;
48743;SDS011;34538;48.836;9.174;2023-12-28T01:52:50;3.22;;;1.20;;
48743;SDS011;34538;48.836;9.174;2023-12-28T01:55:17;2.05;;;1.30;;
48743;SDS011;34538;48.836;9.174;2023-12-28T01:57:46;1.23;;;0.82;;
48743;SDS011;34538;48.836;9.174;2023-12-28T02:00:13;4.18;;;1.50;;
48743;SDS011;34538;48.836;9.174;2023-12-28T02:02:40;2.95;;;1.17;;
48743;SDS011;34538;48.836;9.174;2023-12-28T02:05:08;2.33;;;1.40;;
48743;SDS011;34538;48.836;9.174;2023-12-28T02:07:38;2.00;;;1.15;;
48743;SDS011;34538;48.836;9.174;2023-12-28T02:10:05;2.03;;;1.20;;
48743;SDS011;34538;48.836;9.174;2023-12-28T02:12:32;1.23;;;1.05;;
48743;SDS011;34538;48.836;9.174;2023-12-28T02:14:59;2.15;;;1.10;;
48743;SDS011;34538;48.836;9.174;2023-12-28T02:17:28;2.25;;;1.25;;
48743;SDS011;34538;48.836;9.174;2023-12-28T02:19:59;2.60;;;1.30;;
48743;SDS011;34538;48.836;9.174;2023-12-28T02:22:30;2.13;;;1.37;;
48743;SDS011;34538;48.836;9.174;2023-12-28T02:25:01;2.70;;;1.60;;
48743;SDS011;34538;48.836;9.174;2023-12-28T02:27:31;2.03;;;1.20;;
48743;SDS011;34538;48.836;9.174;2023-12-28T02:29:58;2.05;;;1.50;;
48743;SDS011;34538;48.836;9.174;2023-12-28T02:32:28;2.47;;;1.30;;
48743;SDS011;34538;48.836;9.174;2023-12-28T02:35:04;3.60;;;1.75;;
48743;SDS011;34538;48.836;9.174;2023-12-28T02:37:38;2.88;;;1.17;;
48743;SDS011;34538;48.836;9.174;2023-12-28T02:40:07;3.15;;;1.48;;
48743;SDS011;34538;48.836;9.174;2023-12-28T02:42:35;1.92;;;1.50;;
48743;SDS011;34538;48.836;9.174;2023-12-28T02:45:02;2.67;;;1.50;;
48743;SDS011;34538;48.836;9.174;2023-12-28T02:47:29;2.80;;;1.60;;
48743;SDS011;34538;48.836;9.174;2023-12-28T02:49:56;3.47;;;1.58;;
48743;SDS011;34538;48.836;9.174;2023-12-28T02:52:24;2.88;;;1.42;;
48743;SDS011;34538;48.836;9.174;2023-12-28T02:54:51;2.50;;;1.38;;
48743;SDS011;34538;48.836;9.174;2023-12-28T02:57:19;2.25;;;1.30;;
48743;SDS011;34538;48.836;9.174;2023-12-28T02:59:46;1.73;;;1.20;;
48743;SDS011;34538;48.836;9.174;2023-12-28T03:02:13;2.47;;;1.55;;
48743;SDS011;34538;48.836;9.174;2023-12-28T03:04:39;2.10;;;1.10;;
48743;SDS011;34538;48.836;9.174;2023-12-28T03:07:07;2.10;;;1.73;;
48743;SDS011;34538;48.836;9.174;2023-12-28T03:09:34;3.08;;;1.60;;
48743;SDS011;34538;48.836;9.174;2023-12-28T03:12:04;1.45;;;1.05;;
48743;SDS011;34538;48.836;9.174;2023-12-28T03:14:33;2.03;;;1.30;;
48743;SDS011;34538;48.836;9.174;2023-12-28T03:16:59;3.25;;;1.20;;
48743;SDS011;34538;48.836;9.174;2023-12-28T03:19:28;2.83;;;1.27;;
48743;SDS011;34538;48.836;9.174;2023-12-28T03:21:55;2.38;;;1.40;;
48743;SDS011;34538;48.836;9.174;2023-12-28T03:24:21;3.15;;;1.52;;
48743;SDS011;34538;48.836;9.174;2023-12-28T03:26:48;2.17;;;1.30;;
48743;SDS011;34538;48.836;9.174;2023-12-28T03:29:15;1.63;;;1.10;;
48743;SDS011;34538;48.836;9.174;2023-12-28T03:31:43;1.70;;;1.08;;
48743;SDS011;34538;48.836;9.174;2023-12-28T03:34:10;3.28;;;1.60;;
48743;SDS011;34538;48.836;9.174;2023-12-28T03:36:37;3.03;;;1.48;;
48743;SDS011;34538;48.836;9.174;2023-12-28T03:39:04;3.47;;;1.30;;
48743;SDS011;34538;48.836;9.174;2023-12-28T03:41:31;1.40;;;1.00;;
48743;SDS011;34538;48.836;9.174;2023-12-28T03:43:58;2.65;;;1.38;;
48743;SDS011;34538;48.836;9.174;2023-12-28T03:46:26;3.45;;;1.52;;
48743;SDS011;34538;48.836;9.174;2023-12-28T03:48:54;2.80;;;1.23;;
48743;SDS011;34538;48.836;9.174;2023-12-28T03:51:21;2.78;;;1.40;;
48743;SDS011;34538;48.836;9.174;2023-12-28T03:53:48;1.60;;;1.20;;
48743;SDS011;34538;48.836;9.174;2023-12-28T03:56:19;1.98;;;1.10;;
48743;SDS011;34538;48.836;9.174;2023-12-28T03:58:52;2.60;;;1.20;;
48743;SDS011;34538;48.836;9.174;2023-12-28T04:01:20;1.73;;;0.95;;
48743;SDS011;34538;48.836;9.174;2023-12-28T04:03:48;2.22;;;1.20;;
48743;SDS011;34538;48.836;9.174;2023-12-28T04:06:17;2.47;;;1.08;;
48743;SDS011;34538;48.836;9.174;2023-12-28T04:08:43;2.05;;;1.13;;
48743;SDS011;34538;48.836;9.174;2023-12-28T04:11:10;2.03;;;1.10;;
48743;SDS011;34538;48.836;9.174;2023-12-28T04:13:37;2.53;;;1.02;;
48743;SDS011;34538;48.836;9.174;2023-12-28T04:16:04;4.40;;;1.52;;
48743;SDS011;34538;48.836;9.174;2023-12-28T04:18:32;1.92;;;1.20;;
48743;SDS011;34538;48.836;9.174;2023-12-28T04:20:59;3.53;;;1.98;;
48743;SDS011;34538;48.836;9.174;2023-12-28T04:23:27;1.48;;;1.00;;
48743;SDS011;34538;48.836;9.174;2023-12-28T04:25:54;1.45;;;1.00;;
48743;SDS011;34538;48.836;9.174;2023-12-28T04:28:20;1.95;;;1.13;;
48743;SDS011;34538;48.836;9.174;2023-12-28T04:30:47;2.13;;;1.40;;
48743;SDS011;34538;48.836;9.174;2023-12-28T04:33:16;3.13;;;0.98;;
48743;SDS011;34538;48.836;9.174;2023-12-28T04:35:45;2.08;;;1.20;;
48743;SDS011;34538;48.836;9.174;2023-12-28T04:38:12;4.03;;;1.10;;
48743;SDS011;34538;48.836;9.174;2023-12-28T04:40:42;1.88;;;1.27;;
48743;SDS011;34538;48.836;9.174;2023-12-28T04:43:08;2.58;;;1.13;;
48743;SDS011;34538;48.836;9.174;2023-12-28T04:45:36;2.20;;;1.20;;
48743;SDS011;34538;48.836;9.174;2023-12-28T04:48:03;1.83;;;1.10;;
48743;SDS011;34538;48.836;9.174;2023-12-28T04:50:31;2.33;;;1.20;;
48743;SDS011;34538;48.836;9.174;2023-12-28T04:52:57;2.33;;;1.08;;
48743;SDS011;34538;48.836;9.174;2023-12-28T04:55:24;2.50;;;1.38;;
48743;SDS011;34538;48.836;9.174;2023-12-28T04:57:53;2.03;;;1.27;;
48743;SDS011;34538;48.836;9.174;2023-12-28T05:00:19;2.05;;;1.02;;
48743;SDS011;34538;48.836;9.174;2023-12-28T05:02:48;2.00;;;1.50;;
48743;SDS011;34538;48.836;9.174;2023-12-28T05:05:15;4.53;;;1.10;;
48743;SDS011;34538;48.836;9.174;2023-12-28T05:07:47;1.70;;;1.10;;
48743;SDS011;34538;48.836;9.174;2023-12-28T05:10:14;3.45;;;1.15;;
48743;SDS011;34538;48.836;9.174;2023-12-28T05:12:40;2.13;;;1.40;;
48743;SDS011;34538;48.836;9.174;2023-12-28T05:15:09;1.42;;;1.02;;
48743;SDS011;34538;48.836;9.174;2023-12-28T05:17:36;1.70;;;0.88;;
48743;SDS011;34538;48.836;9.174;2023-12-28T05:20:03;2.55;;;1.02;;
48743;SDS011;34538;48.836;9.174;2023-12-28T05:22:31;1.88;;;0.93;;
48743;SDS011;34538;48.836;9.174;2023-12-28T05:24:58;3.22;;;1.02;;
48743;SDS011;34538;48.836;9.174;2023-12-28T05:27:25;2.65;;;1.27;;
48743;SDS011;34538;48.836;9.174;2023-12-28T05:29:52;2.67;;;1.17;;
48743;SDS011;34538;48.836;9.174;2023-12-28T05:32:21;2.08;;;1.15;;
48743;SDS011;34538;48.836;9.174;2023-12-28T05:34:48;2.78;;;0.80;;
48743;SDS011;34538;48.836;9.174;2023-12-28T05:37:15;2.30;;;0.90;;
48743;SDS011;34538;48.836;9.174;2023-12-28T05:39:42;3.30;;;1.10;;
48743;SDS011;34538;48.836;9.174;2023-12-28T05:42:09;1.48;;;0.82;;
48743;SDS011;34538;48.836;9.174;2023-12-28T05:44:35;1.65;;;1.13;;
48743;SDS011;34538;48.836;9.174;2023-12-28T05:47:02;2.33;;;1.30;;
48743;SDS011;34538;48.836;9.174;2023-12-28T05:49:31;1.95;;;1.10;;
48743;SDS011;34538;48.836;9.174;2023-12-28T05:51:58;3.03;;;0.93;;
48743;SDS011;34538;48.836;9.174;2023-12-28T05:54:25;2.13;;;1.00;;
48743;SDS011;34538;48.836;9.174;2023-12-28T05:56:52;1.73;;;1.00;;
48743;SDS011;34538;48.836;9.174;2023-12-28T05:59:19;1.23;;;0.93;;
48743;SDS011;34538;48.836;9.174;2023-12-28T06:01:47;2.53;;;1.00;;
48743;SDS011;34538;48.836;9.174;2023-12-28T06:04:14;2.17;;;1.02;;
48743;SDS011;34538;48.836;9.174;2023-12-28T06:06:42;2.75;;;1.20;;
48743;SDS011;34538;48.836;9.174;2023-12-28T06:09:10;2.78;;;1.27;;
48743;SDS011;34538;48.836;9.174;2023-12-28T06:11:37;2.08;;;1.20;;
48743;SDS011;34538;48.836;9.174;2023-12-28T06:14:04;2.10;;;0.98;;
48743;SDS011;34538;48.836;9.174;2023-12-28T06:16:31;2.40;;;1.20;;
48743;SDS011;34538;48.836;9.174;2023-12-28T06:18:58;2.35;;;1.10;;
48743;SDS011;34538;48.836;9.174;2023-12-28T06:21:26;2.17;;;1.02;;
48743;SDS011;34538;48.836;9.174;2023-12-28T06:23:55;1.90;;;1.10;;
48743;SDS011;34538;48.836;9.174;2023-12-28T06:26:22;3.13;;;1.10;;
48743;SDS011;34538;48.836;9.174;2023-12-28T06:28:49;1.92;;;1.10;;
48743;SDS011;34538;48.836;9.174;2023-12-28T06:31:16;1.75;;;0.90;;
48743;SDS011;34538;48.836;9.174;2023-12-28T06:33:43;2.35;;;1.05;;
48743;SDS011;34538;48.836;9.174;2023-12-28T06:36:11;2.28;;;0.88;;
48743;SDS011;34538;48.836;9.174;2023-12-28T06:38:38;3.20;;;1.42;;
48743;SDS011;34538;48.836;9.174;2023-12-28T06:41:13;2.60;;;1.10;;
48743;SDS011;34538;48.836;9.174;2023-12-28T06:43:40;3.13;;;1.20;;
48743;SDS011;34538;48.836;9.174;2023-12-28T06:46:06;2.15;;;1.00;;
48743;SDS011;34538;48.836;9.174;2023-12-28T06:48:33;2.20;;;1.10;;
48743;SDS011;34538;48.836;9.174;2023-12-28T06:51:00;1.85;;;1.02;;
48743;SDS011;34538;48.836;9.174;2023-12-28T06:53:27;1.92;;;1.10;;
48743;SDS011;34538;48.836;9.174;2023-12-28T06:55:54;5.70;;;1.30;;
48743;SDS011;34538;48.836;9.174;2023-12-28T06:58:23;1.85;;;1.10;;
48743;SDS011;34538;48.836;9.174;2023-12-28T07:00:49;1.80;;;0.82;;
48743;SDS011;34538;48.836;9.174;2023-12-28T07:03:16;3.15;;;1.30;;
48743;SDS011;34538;48.836;9.174;2023-12-28T07:05:43;2.95;;;1.33;;
48743;SDS011;34538;48.836;9.174;2023-12-28T07:08:10;2.50;;;1.40;;
48743;SDS011;34538;48.836;9.174;2023-12-28T07:10:37;2.13;;;1.20;;
48743;SDS011;34538;48.836;9.174;2023-12-28T07:13:03;3.50;;;1.52;;
48743;SDS011;34538;48.836;9.174;2023-12-28T07:15:32;2.78;;;1.40;;
48743;SDS011;34538;48.836;9.174;2023-12-28T07:17:59;2.05;;;1.33;;
48743;SDS011;34538;48.836;9.174;2023-12-28T07:20:26;4.50;;;1.15;;
48743;SDS011;34538;48.836;9.174;2023-12-28T07:22:52;2.03;;;1.20;;
48743;SDS011;34538;48.836;9.174;2023-12-28T07:25:19;1.90;;;1.20;;
48743;SDS011;34538;48.836;9.174;2023-12-28T07:27:46;4.57;;;1.40;;
48743;SDS011;34538;48.836;9.174;2023-12-28T07:30:13;3.15;;;1.40;;
48743;SDS011;34538;48.836;9.174;2023-12-28T07:32:43;3.70;;;1.90;;
48743;SDS011;34538;48.836;9.174;2023-12-28T07:35:10;2.53;;;1.70;;
48743;SDS011;34538;48.836;9.174;2023-12-28T07:37:37;4.68;;;2.05;;
48743;SDS011;34538;48.836;9.174;2023-12-28T07:40:05;4.50;;;1.98;;
48743;SDS011;34538;48.836;9.174;2023-12-28T07:42:33;3.33;;;1.77;;
48743;SDS011;34538;48.836;9.174;2023-12-28T07:45:00;3.90;;;1.75;;
48743;SDS011;34538;48.836;9.174;2023-12-28T07:47:27;3.42;;;1.70;;
48743;SDS011;34538;48.836;9.174;2023-12-28T07:49:55;4.28;;;2.00;;
48743;SDS011;34538;48.836;9.174;2023-12-28T07:52:22;3.78;;;1.77;;
48743;SDS011;34538;48.836;9.174;2023-12-28T07:54:49;3.63;;;1.65;;
48743;SDS011;34538;48.836;9.174;2023-12-28T07:57:16;3.53;;;1.90;;
48743;SDS011;34538;48.836;9.174;2023-12-28T07:59:44;5.90;;;2.05;;
48743;SDS011;34538;48.836;9.174;2023-12-28T08:02:11;5.50;;;2.60;;
48743;SDS011;34538;48.836;9.174;2023-12-28T08:04:38;3.78;;;1.90;;
48743;SDS011;34538;48.836;9.174;2023-12-28T08:07:06;5.03;;;2.42;;
48743;SDS011;34538;48.836;9.174;2023-12-28T08:09:33;7.85;;;3.10;;
48743;SDS011;34538;48.836;9.174;2023-12-28T08:12:01;3.80;;;2.20;;
48743;SDS011;34538;48.836;9.174;2023-12-28T08:14:28;6.85;;;2.63;;
48743;SDS011;34538;48.836;9.174;2023-12-28T08:16:55;5.43;;;2.80;;
48743;SDS011;34538;48.836;9.174;2023-12-28T08:19:22;17.58;;;8.02;;
48743;SDS011;34538;48.836;9.174;2023-12-28T08:21:48;13.65;;;6.53;;
48743;SDS011;34538;48.836;9.174;2023-12-28T08:24:16;13.82;;;7.47;;
48743;SDS011;34538;48.836;9.174;2023-12-28T08:26:44;16.30;;;7.40;;
48743;SDS011;34538;48.836;9.174;2023-12-28T08:29:10;14.38;;;6.63;;
48743;SDS011;34538;48.836;9.174;2023-12-28T08:31:38;12.63;;;6.35;;
48743;SDS011;34538;48.836;9.174;2023-12-28T08:34:04;12.40;;;6.10;;
48743;SDS011;34538;48.836;9.174;2023-12-28T08:36:31;11.95;;;5.47;;
48743;SDS011;34538;48.836;9.174;2023-12-28T08:38:58;13.30;;;5.90;;
48743;SDS011;34538;48.836;9.174;2023-12-28T08:41:26;7.90;;;4.18;;
48743;SDS011;34538;48.836;9.174;2023-12-28T08:43:53;7.40;;;4.47;;
48743;SDS011;34538;48.836;9.174;2023-12-28T08:46:20;8.68;;;4.82;;
48743;SDS011;34538;48.836;9.174;2023-12-28T08:48:47;7.68;;;3.97;;
48743;SDS011;34538;48.836;9.174;2023-12-28T08:51:14;9.88;;;5.00;;
48743;SDS011;34538;48.836;9.174;2023-12-28T08:53:41;8.80;;;4.50;;
48743;SDS011;34538;48.836;9.174;2023-12-28T08:56:18;10.85;;;4.82;;
48743;SDS011;34538;48.836;9.174;2023-12-28T08:58:47;10.55;;;4.35;;
48743;SDS011;34538;48.836;9.174;2023-12-28T09:01:16;8.57;;;4.22;;
48743;SDS011;34538;48.836;9.174;2023-12-28T09:03:43;9.40;;;4.10;;
48743;SDS011;34538;48.836;9.174;2023-12-28T09:06:11;10.05;;;4.47;;
48743;SDS011;34538;48.836;9.174;2023-12-28T09:08:41;7.57;;;4.10;;
48743;SDS011;34538;48.836;9.174;2023-12-28T09:11:09;8.07;;;4.07;;
48743;SDS011;34538;48.836;9.174;2023-12-28T09:13:36;8.45;;;3.30;;
48743;SDS011;34538;48.836;9.174;2023-12-28T09:16:05;9.23;;;3.22;;
48743;SDS011;34538;48.836;9.174;2023-12-28T09:18:33;7.75;;;3.15;;
48743;SDS011;34538;48.836;9.174;2023-12-28T09:21:02;6.00;;;3.25;;
48743;SDS011;34538;48.836;9.174;2023-12-28T09:23:29;6.05;;;3.13;;
48743;SDS011;34538;48.836;9.174;2023-12-28T09:25:57;6.78;;;3.35;;
48743;SDS011;34538;48.836;9.174;2023-12-28T09:28:24;8.68;;;3.50;;
48743;SDS011;34538;48.836;9.174;2023-12-28T09:30:51;8.32;;;3.40;;
48743;SDS011;34538;48.836;9.174;2023-12-28T09:33:19;8.25;;;3.17;;
48743;SDS011;34538;48.836;9.174;2023-12-28T09:35:46;6.70;;;3.10;;
48743;SDS011;34538;48.836;9.174;2023-12-28T09:38:13;7.35;;;3.55;;
48743;SDS011;34538;48.836;9.174;2023-12-28T09:40:41;6.95;;;3.30;;
48743;SDS011;34538;48.836;9.174;2023-12-28T09:43:09;9.45;;;4.30;;
48743;SDS011;34538;48.836;9.174;2023-12-28T09:45:41;7.65;;;4.57;;
48743;SDS011;34538;48.836;9.174;2023-12-28T09:48:08;7.38;;;3.53;;
48743;SDS011;34538;48.836;9.174;2023-12-28T09:50:39;8.80;;;3.95;;
48743;SDS011;34538;48.836;9.174;2023-12-28T09:53:06;6.93;;;3.50;;
48743;SDS011;34538;48.836;9.174;2023-12-28T09:55:33;4.70;;;2.75;;
48743;SDS011;34538;48.836;9.174;2023-12-28T09:57:59;4.25;;;2.50;;
48743;SDS011;34538;48.836;9.174;2023-12-28T10:00:28;3.92;;;1.92;;
48743;SDS011;34538;48.836;9.174;2023-12-28T10:02:55;3.00;;;1.77;;
48743;SDS011;34538;48.836;9.174;2023-12-28T10:05:22;4.07;;;2.10;;
48743;SDS011;34538;48.836;9.174;2023-12-28T10:07:50;3.13;;;1.60;;
48743;SDS011;34538;48.836;9.174;2023-12-28T10:10:17;2.70;;;1.60;;
48743;SDS011;34538;48.836;9.174;2023-12-28T10:12:47;4.05;;;2.28;;
48743;SDS011;34538;48.836;9.174;2023-12-28T10:15:14;3.42;;;1.98;;
48743;SDS011;34538;48.836;9.174;2023-12-28T10:17:41;2.88;;;1.60;;
48743;SDS011;34538;48.836;9.174;2023-12-28T10:20:08;3.47;;;1.98;;
48743;SDS011;34538;48.836;9.174;2023-12-28T10:22:35;2.75;;;1.83;;
48743;SDS011;34538;48.836;9.174;2023-12-28T10:25:05;4.82;;;1.70;;
48743;SDS011;34538;48.836;9.174;2023-12-28T10:27:36;4.38;;;1.60;;
48743;SDS011;34538;48.836;9.174;2023-12-28T10:30:06;3.45;;;1.60;;
48743;SDS011;34538;48.836;9.174;2023-12-28T10:32:34;2.45;;;1.60;;
48743;SDS011;34538;48.836;9.174;2023-12-28T10:35:01;3.53;;;1.80;;
48743;SDS011;34538;48.836;9.174;2023-12-28T10:37:28;2.88;;;1.48;;
48743;SDS011;34538;48.836;9.174;2023-12-28T10:39:59;3.08;;;1.85;;
48743;SDS011;34538;48.836;9.174;2023-12-28T10:42:30;4.25;;;1.50;;
48743;SDS011;34538;48.836;9.174;2023-12-28T10:45:01;4.60;;;2.03;;
48743;SDS011;34538;48.836;9.174;2023-12-28T10:47:31;2.58;;;1.83;;
48743;SDS011;34538;48.836;9.174;2023-12-28T10:50:00;2.67;;;1.48;;
48743;SDS011;34538;48.836;9.174;2023-12-28T10:52:31;2.08;;;1.10;;
48743;SDS011;34538;48.836;9.174;2023-12-28T10:55:06;3.03;;;1.35;;
48743;SDS011;34538;48.836;9.174;2023-12-28T10:57:48;1.55;;;1.00;;
48743;SDS011;34538;48.836;9.174;2023-12-28T11:00:25;1.42;;;0.90;;
48743;SDS011;34538;48.836;9.174;2023-12-28T11:02:57;1.70;;;1.00;;
48743;SDS011;34538;48.836;9.174;2023-12-28T11:05:30;2.22;;;1.00;;
48743;SDS011;34538;48.836;9.174;2023-12-28T11:08:00;2.10;;;0.75;;
48743;SDS011;34538;48.836;9.174;2023-12-28T11:10:28;1.35;;;0.80;;
48743;SDS011;34538;48.836;9.174;2023-12-28T11:12:59;3.15;;;1.00;;
48743;SDS011;34538;48.836;9.174;2023-12-28T11:15:28;0.93;;;0.70;;
48743;SDS011;34538;48.836;9.174;2023-12-28T11:17:57;1.73;;;1.10;;
48743;SDS011;34538;48.836;9.174;2023-12-28T11:20:24;0.77;;;0.68;;
48743;SDS011;34538;48.836;9.174;2023-12-28T11:22:54;1.08;;;0.88;;
48743;SDS011;34538;48.836;9.174;2023-12-28T11:25:22;1.90;;;0.90;;
48743;SDS011;34538;48.836;9.174;2023-12-28T11:27:49;2.13;;;1.15;;
48743;SDS011;34538;48.836;9.174;2023-12-28T11:30:17;1.70;;;0.70;;
48743;SDS011;34538;48.836;9.174;2023-12-28T11:32:44;1.40;;;1.10;;
48743;SDS011;34538;48.836;9.174;2023-12-28T11:35:11;2.65;;;0.75;;
48743;SDS011;34538;48.836;9.174;2023-12-28T11:37:40;4.13;;;1.00;;
48743;SDS011;34538;48.836;9.174;2023-12-28T11:40:10;3.47;;;1.05;;
48743;SDS011;34538;48.836;9.174;2023-12-28T11:42:47;2.45;;;0.80;;
48743;SDS011;34538;48.836;9.174;2023-12-28T11:45:18;1.50;;;0.93;;
48743;SDS011;34538;48.836;9.174;2023-12-28T11:47:45;1.33;;;0.82;;
48743;SDS011;34538;48.836;9.174;2023-12-28T11:50:12;2.15;;;1.00;;
48743;SDS011;34538;48.836;9.174;2023-12-28T11:52:40;1.52;;;0.77;;
48743;SDS011;34538;48.836;9.174;2023-12-28T11:55:07;2.55;;;1.10;;
48743;SDS011;34538;48.836;9.174;2023-12-28T11:57:36;4.15;;;1.50;;
48743;SDS011;34538;48.836;9.174;2023-12-28T12:00:04;1.63;;;0.80;;
48743;SDS011;34538;48.836;9.174;2023-12-28T12:02:35;2.95;;;0.95;;
48743;SDS011;34538;48.836;9.174;2023-12-28T12:05:02;2.55;;;0.68;;
48743;SDS011;34538;48.836;9.174;2023-12-28T12:07:30;0.95;;;0.73;;
48743;SDS011;34538;48.836;9.174;2023-12-28T12:09:57;1.33;;;0.65;;
48743;SDS011;34538;48.836;9.174;2023-12-28T12:12:24;1.88;;;1.05;;
48743;SDS011;34538;48.836;9.174;2023-12-28T12:14:51;1.80;;;0.90;;
48743;SDS011;34538;48.836;9.174;2023-12-28T12:17:19;1.98;;;1.00;;
48743;SDS011;34538;48.836;9.174;2023-12-28T12:19:47;1.48;;;0.80;;
48743;SDS011;34538;48.836;9.174;2023-12-28T12:22:18;1.20;;;0.80;;
48743;SDS011;34538;48.836;9.174;2023-12-28T12:24:46;1.38;;;1.00;;
48743;SDS011;34538;48.836;9.174;2023-12-28T12:27:14;1.88;;;0.80;;
48743;SDS011;34538;48.836;9.174;2023-12-28T12:29:41;1.88;;;0.85;;
48743;SDS011;34538;48.836;9.174;2023-12-28T12:32:08;0.82;;;0.63;;
48743;SDS011;34538;48.836;9.174;2023-12-28T12:34:35;2.65;;;1.00;;
48743;SDS011;34538;48.836;9.174;2023-12-28T12:37:05;2.63;;;1.48;;
48743;SDS011;34538;48.836;9.174;2023-12-28T12:39:32;4.18;;;2.30;;
48743;SDS011;34538;48.836;9.174;2023-12-28T12:41:59;4.72;;;2.53;;
48743;SDS011;34538;48.836;9.174;2023-12-28T12:44:26;8.20;;;4.28;;
48743;SDS011;34538;48.836;9.174;2023-12-28T12:46:56;7.80;;;3.83;;
48743;SDS011;34538;48.836;9.174;2023-12-28T12:49:24;4.63;;;2.63;;
48743;SDS011;34538;48.836;9.174;2023-12-28T12:51:51;4.90;;;2.33;;
48743;SDS011;34538;48.836;9.174;2023-12-28T12:54:20;5.43;;;2.95;;
48743;SDS011;34538;48.836;9.174;2023-12-28T12:56:47;4.32;;;2.15;;
48743;SDS011;34538;48.836;9.174;2023-12-28T12:59:15;5.40;;;2.53;;
48743;SDS011;34538;48.836;9.174;2023-12-28T13:01:43;4.30;;;2.38;;
48743;SDS011;34538;48.836;9.174;2023-12-28T13:04:10;3.38;;;1.88;;
48743;SDS011;34538;48.836;9.174;2023-12-28T13:06:37;2.22;;;1.38;;
48743;SDS011;34538;48.836;9.174;2023-12-28T13:09:04;2.08;;;1.38;;
48743;SDS011;34538;48.836;9.174;2023-12-28T13:11:34;1.98;;;1.27;;
48743;SDS011;34538;48.836;9.174;2023-12-28T13:14:01;3.22;;;1.20;;
48743;SDS011;34538;48.836;9.174;2023-12-28T13:16:29;2.63;;;1.00;;
48743;SDS011;34538;48.836;9.174;2023-12-28T13:18:56;1.30;;;1.05;;
48743;SDS011;34538;48.836;9.174;2023-12-28T13:21:24;1.65;;;1.10;;
48743;SDS011;34538;48.836;9.174;2023-12-28T13:23:50;1.77;;;1.15;;
48743;SDS011;34538;48.836;9.174;2023-12-28T13:26:17;2.45;;;1.17;;
48743;SDS011;34538;48.836;9.174;2023-12-28T13:28:46;1.60;;;1.05;;
48743;SDS011;34538;48.836;9.174;2023-12-28T13:31:13;1.88;;;0.90;;
48743;SDS011;34538;48.836;9.174;2023-12-28T13:33:39;1.60;;;1.20;;
48743;SDS011;34538;48.836;9.174;2023-12-28T13:36:06;4.07;;;1.00;;
48743;SDS011;34538;48.836;9.174;2023-12-28T13:38:33;1.40;;;0.90;;
48743;SDS011;34538;48.836;9.174;2023-12-28T13:41:00;1.75;;;1.00;;
48743;SDS011;34538;48.836;9.174;2023-12-28T13:43:27;2.35;;;1.33;;
48743;SDS011;34538;48.836;9.174;2023-12-28T13:45:55;2.83;;;1.45;;
48743;SDS011;34538;48.836;9.174;2023-12-28T13:48:22;2.55;;;1.00;;
48743;SDS011;34538;48.836;9.174;2023-12-28T13:50:48;2.90;;;1.10;;
48743;SDS011;34538;48.836;9.174;2023-12-28T13:53:16;1.50;;;1.10;;
48743;SDS011;34538;48.836;9.174;2023-12-28T13:55:43;2.58;;;1.35;;
48743;SDS011;34538;48.836;9.174;2023-12-28T13:58:10;1.88;;;0.85;;
48743;SDS011;34538;48.836;9.174;2023-12-28T14:00:37;1.55;;;0.90;;
48743;SDS011;34538;48.836;9.174;2023-12-28T14:03:05;1.73;;;0.90;;
48743;SDS011;34538;48.836;9.174;2023-12-28T14:05:32;1.40;;;0.70;;
48743;SDS011;34538;48.836;9.174;2023-12-28T14:07:58;1.45;;;0.95;;
48743;SDS011;34538;48.836;9.174;2023-12-28T14:10:25;4.88;;;1.33;;
48743;SDS011;34538;48.836;9.174;2023-12-28T14:12:52;2.33;;;1.50;;
48743;SDS011;34538;48.836;9.174;2023-12-28T14:15:19;2.47;;;1.52;;
48743;SDS011;34538;48.836;9.174;2023-12-28T14:17:46;2.97;;;1.75;;
48743;SDS011;34538;48.836;9.174;2023-12-28T14:20:14;3.10;;;1.80;;
48743;SDS011;34538;48.836;9.174;2023-12-28T14:22:42;3.03;;;1.80;;
48743;SDS011;34538;48.836;9.174;2023-12-28T14:25:10;3.70;;;1.70;;
48743;SDS011;34538;48.836;9.174;2023-12-28T14:27:38;2.22;;;1.10;;
48743;SDS011;34538;48.836;9.174;2023-12-28T14:30:05;2.58;;;1.30;;
48743;SDS011;34538;48.836;9.174;2023-12-28T14:32:35;3.47;;;1.80;;
48743;SDS011;34538;48.836;9.174;2023-12-28T14:35:02;3.50;;;1.70;;
48743;SDS011;34538;48.836;9.174;2023-12-28T14:37:31;2.60;;;1.45;;
48743;SDS011;34538;48.836;9.174;2023-12-28T14:39:58;2.63;;;1.20;;
48743;SDS011;34538;48.836;9.174;2023-12-28T14:42:28;2.20;;;1.40;;
48743;SDS011;34538;48.836;9.174;2023-12-28T14:44:55;1.73;;;1.15;;
48743;SDS011;34538;48.836;9.174;2023-12-28T14:47:22;2.50;;;0.90;;
48743;SDS011;34538;48.836;9.174;2023-12-28T14:49:48;1.85;;;1.00;;
48743;SDS011;34538;48.836;9.174;2023-12-28T14:52:15;1.65;;;0.85;;